Barnesville, Kansas
Current Conditions -  °F | °C
As of 10:35 AM on Sunday 21 Dec 2014 (Local Time) from KPTS Reporting Station
Haze Haze  
Wind Chill: 38°   Ceiling: 700
Heat Index: 44°   Visibility: 4mi
Dew Point: 44°   Wind: 10mph
Humidity: 100%   Direction: 190°S
Pressure: 30.03"   Gusts: NA
Location:  37.9827°N, 94.7626°W
Report Text: KPTS 211635Z AUTO 19009KT 4SM BR OVC007 07/07 A3003 RMK AO2 T00650065
Loading
Personal Weather Stations






























Interactive Weather Map New forecast layout! Learn more

10-Day Weather Forecast

Advertisements
Track Severe Weather on mobile